createdAt,value
2022-10-04T00:00:02.854Z,79
2022-10-04T00:20:02.211Z,79
2022-10-04T00:40:02.455Z,79
2022-10-04T01:00:02.685Z,79
2022-10-04T01:20:02.384Z,79
2022-10-04T01:40:02.680Z,79
2022-10-04T02:00:02.878Z,79
2022-10-04T02:20:02.525Z,79
2022-10-04T02:40:03.020Z,79
2022-10-04T03:00:02.546Z,79
2022-10-04T03:20:03.244Z,79
2022-10-04T03:40:02.623Z,79
2022-10-04T04:00:02.874Z,79
2022-10-04T04:20:07.754Z,79
2022-10-04T04:40:03.287Z,79
2022-10-04T05:00:03.189Z,79
2022-10-04T05:20:02.867Z,80
2022-10-04T05:40:03.348Z,81
2022-10-04T06:00:04.967Z,81
2022-10-04T06:20:03.015Z,81
2022-10-04T06:40:02.436Z,81
2022-10-04T07:00:02.955Z,81
2022-10-04T07:20:02.446Z,79
2022-10-04T07:40:02.854Z,77
2022-10-04T08:00:03.384Z,75
2022-10-04T08:20:02.879Z,74
2022-10-04T08:40:02.393Z,75
2022-10-04T09:00:03.062Z,75
2022-10-04T09:20:38.178Z,73
2022-10-04T09:40:03.317Z,71
2022-10-04T10:00:02.800Z,68
2022-10-04T10:20:02.497Z,67
2022-10-04T10:40:02.797Z,66
2022-10-04T11:00:03.958Z,63
2022-10-04T11:20:02.612Z,63
2022-10-04T11:40:02.976Z,63
2022-10-04T12:00:02.376Z,60
2022-10-04T12:20:02.960Z,60
2022-10-04T12:40:02.338Z,60
2022-10-04T13:00:02.960Z,60
2022-10-04T13:20:02.852Z,61
2022-10-04T13:40:03.300Z,61
2022-10-04T14:00:03.081Z,61
2022-10-04T14:20:02.882Z,61
2022-10-04T14:40:03.311Z,60
2022-10-04T15:00:02.594Z,61
2022-10-04T15:20:03.482Z,61
2022-10-04T15:40:02.821Z,61
2022-10-04T16:00:03.569Z,62
2022-10-04T16:20:02.951Z,63
2022-10-04T16:40:02.333Z,64
2022-10-04T17:00:02.731Z,66
2022-10-04T17:20:02.553Z,67
2022-10-04T17:40:09.027Z,69
2022-10-04T18:00:02.651Z,70
2022-10-04T18:20:02.609Z,71
2022-10-04T18:40:03.363Z,72
2022-10-04T19:00:02.822Z,73
2022-10-04T19:20:07.369Z,73
2022-10-04T19:40:02.745Z,73
2022-10-04T20:00:03.261Z,73
2022-10-04T20:20:02.918Z,73
2022-10-04T20:40:02.242Z,74
2022-10-04T21:00:02.471Z,74
2022-10-04T21:20:03.659Z,74
2022-10-04T21:40:03.044Z,74
2022-10-04T22:00:02.499Z,75
2022-10-04T22:20:03.177Z,75
2022-10-04T22:40:02.644Z,75
2022-10-04T23:00:03.224Z,75
2022-10-04T23:20:02.887Z,75
2022-10-04T23:40:03.044Z,75
